Private Wetterstation Nrnberg - Katzwang
Wetterdaten: Juli 2010
Datum Temp. A. Feuchte A. Luftdruck Regen Wind Richtung Taupunkt Windchill Windben
01.07.2010 24,9 C 54 % 1015 hPa 0,0 l/m 0,0 km/h N-NO 13,9 C 24,9 C 2,9 km/h
02.07.2010 25,9 C 54 % 1015 hPa 0,0 l/m 1,6 km/h NO 15,1 C 25,9 C 4,5 km/h
03.07.2010 28,0 C 50 % 1015 hPa 0,0 l/m 0,0 km/h W-NW 16,1 C 28,0 C 2,9 km/h
04.07.2010 23,5 C 68 % 1017 hPa 1,0 l/m 15,9 km/h W-NW 17,0 C 21,7 C 18,8 km/h
05.07.2010 24,7 C 55 % 1016 hPa 0,0 l/m 6,5 km/h W-NW 14,3 C 24,4 C 9,4 km/h
06.07.2010 19,7 C 53 % 1020 hPa 0,0 l/m 4,9 km/h W-NW 9,3 C 19,1 C 7,8 km/h
07.07.2010 20,4 C 51 % 1020 hPa 0,0 l/m 4,2 km/h NO 9,5 C 20,0 C 7,1 km/h
08.07.2010 24,0 C 49 % 1018 hPa 0,0 l/m 5,2 km/h O 11,7 C 23,7 C 8,1 km/h
09.07.2010 26,4 C 50 % 1018 hPa 0,0 l/m 11,4 km/h O-NO 14,3 C 25,5 C 14,3 km/h
10.07.2010 29,3 C 48 % 1017 hPa 0,0 l/m 8,4 km/h NO 16,2 C 28,9 C 11,3 km/h
11.07.2010 28,8 C 48 % 1015 hPa 0,0 l/m 4,6 km/h NO 16,1 C 28,8 C 7,4 km/h
12.07.2010 26,0 C 67 % 1012 hPa 9,8 l/m 23,7 km/h W-NW 18,4 C 23,3 C 45,5 km/h
13.07.2010 25,1 C 62 % 1011 hPa 0,0 l/m 4,9 km/h W-NW 16,9 C 24,9 C 7,8 km/h
14.07.2010 28,4 C 56 % 1007 hPa 0,0 l/m 15,3 km/h NO 17,8 C 27,9 C 18,2 km/h
15.07.2010 21,9 C 77 % 1014 hPa 4,7 l/m 4,9 km/h NO 17,6 C 21,3 C 7,8 km/h
16.07.2010 27,2 C 56 % 1014 hPa 0,0 l/m 0,0 km/h O 16,9 C 27,2 C 2,9 km/h
17.07.2010 20,0 C 80 % 1018 hPa 15,0 l/m 4,6 km/h NO 16,2 C 19,5 C 7,4 km/h
18.07.2010 20,4 C 65 % 1023 hPa 0,0 l/m 3,5 km/h NO 13,1 C 20,0 C 6,4 km/h
19.07.2010 21,2 C 60 % 1020 hPa 0,0 l/m 7,8 km/h NO 12,5 C 20,5 C 10,7 km/h
20.07.2010 22,5 C 60 % 1013 hPa 0,0 l/m 3,3 km/h O-NO 13,8 C 22,4 C 6,2 km/h
21.07.2010 26,3 C 58 % 1009 hPa 0,0 l/m 6,2 km/h W-NW 16,5 C 26,3 C 9,1 km/h
22.07.2010 24,7 C 62 % 1013 hPa 1,0 l/m 7,1 km/h W-NW 16,7 C 23,8 C 10,0 km/h
23.07.2010 19,6 C 83 % 1014 hPa 15,5 l/m 1,6 km/h W-NW 16,5 C 19,6 C 4,5 km/h
24.07.2010 16,0 C 84 % 1015 hPa 22,3 l/m 2,3 km/h W-NW 13,2 C 15,6 C 5,2 km/h
25.07.2010 17,3 C 60 % 1014 hPa 0,0 l/m 6,2 km/h W-NW 8,7 C 16,5 C 9,1 km/h
26.07.2010 15,1 C 91 % 1013 hPa 34,7 l/m 4,0 km/h W-NW 13,6 C 14,7 C 5,9 km/h
27.07.2010 16,9 C 88 % 1015 hPa 7,8 l/m 0,5 km/h W-NW 14,8 C 16,9 C 1,5 km/h
28.07.2010 16,8 C 88 % 1014 hPa 1,6 l/m 2,0 km/h W-NW 14,7 C 16,6 C 3,0 km/h
Min-Datum 07.07.10 09.07.10 14.07.10 10 Tage 01.07.10 - 25.07.10 24.07.10 26.07.10
Min-Zeit 05:40 16:30 18:10 - 00:00 - 14:50 09:10 19:00
Minimum 10,6 C 28 % 1005 hPa - 0,0 km/h - 5,3 C 4,3 C 1,0 km/h
Max-Datum 11.07.10 27.07.10 18.07.10 26.07.10 05.07.10 - 12.07.10 11.07.10 06.07.10
Max-Zeit 15:00 02:00 09:20 18:00 15:00 - 18:10 15:00 11:40
Maximum 37,1 C 94 % 1025 hPa 34,7 l/m 58,5 km/h
W-NW
- 21,2 C 37,1 C 91,2 km/h
W-NW
Durchschnitt 22,9 C 63 % 1015 hPa #113,4 l/m 5,7 km/h W-NW 14,7 C 22,4 C 9,1 km/h

Durchschnitt Minimum Temp.16,2 C
Durchschnitt Maximum Temp.29,1 C